Flight Track Log - Related Links

Times and Time Zones

All times are in EDT time to prevent confusion due to time zone crossing. See the N661WL flight status page for this flight to view local times or setup timezone preferences in your user account.

Time Position Orientation Groundspeed Altitude Reporting Facility
EDT Latitude Longitude Course Direction KTS MPH feet Rate Location/Type
Sun 09:55:15 AM 37.8750 -79.8933 214° Southwest 179 206 6,100  Level Washington Center
Sun 09:56:13 AM 37.8406 -79.9228 214° Southwest 159 183 7,000 807 Climbing Washington Center
Sun 09:57:14 AM 37.8042 -79.9469 208° Southwest 153 176 7,700 541 Climbing Washington Center
Sun 09:58:15 AM 37.7719 -79.9742 214° Southwest 148 170 8,100 202 Climbing Washington Center
Sun 09:59:13 AM 37.7292 -80.0031 208° Southwest 161 185 8,100 -50 Level Washington Center
Sun 10:00:16 AM 37.6842 -80.0372 211° Southwest 175 201 8,000 -50 Descending Washington Center
Sun 10:01:13 AM 37.6392 -80.0711 211° Southwest 187 215 8,000  Level Washington Center
Sun 10:02:14 AM 37.5897 -80.1075 210° Southwest 192 221 8,000 49 Level Washington Center
Sun 10:03:15 AM 37.5447 -80.1417 211° Southwest 192 221 8,100  Climbing Washington Center
Sun 10:04:15 AM 37.4975 -80.1756 210° Southwest 192 221 8,000  Descending Washington Center
Sun 10:05:15 AM 37.4567 -80.2069 211° Southwest 192 221 8,100  Climbing Washington Center
Sun 10:06:13 AM 37.4094 -80.2408 210° Southwest 192 221 8,000 -59 Descending Washington Center
Sun 10:06:57 AM 37.3703 -80.2656 207° Southwest 213 245 8,000  Level Atlanta Center
Sun 10:07:57 AM 37.3294 -80.2936 209° Southwest 200 230 8,000  Level Atlanta Center
Sun 10:08:57 AM 37.2825 -80.3272 210° Southwest 200 230 8,000  Level Atlanta Center
Sun 10:09:57 AM 37.2356 -80.3633 211° Southwest 200 230 8,000 50 Level Atlanta Center
Sun 10:10:57 AM 37.1844 -80.3994 209° Southwest 200 230 8,100  Climbing Atlanta Center
Sun 10:11:57 AM 37.1375 -80.4331 210° Southwest 200 230 8,000  Descending Atlanta Center
Sun 10:12:57 AM 37.0906 -80.4664 210° Southwest 200 230 8,100  Climbing Atlanta Center
Sun 10:13:57 AM 37.0436 -80.5022 211° Southwest 200 230 8,000  Descending Atlanta Center
Sun 10:14:57 AM 37.0028 -80.5328 211° Southwest 200 230 8,100 50 Climbing Atlanta Center
Sun 10:15:57 AM 36.9558 -80.5658 209° Southwest 200 230 8,100  Level Atlanta Center
Sun 10:16:57 AM 36.9089 -80.5967 208° Southwest 200 230 8,100 -50 Level Atlanta Center
Sun 10:17:57 AM 36.8619 -80.6322 211° Southwest 200 230 8,000  Descending Atlanta Center
Sun 10:18:57 AM 36.8128 -80.6708 212° Southwest 200 230 8,100 50 Climbing Atlanta Center
Sun 10:19:57 AM 36.7658 -80.7011 207° Southwest 200 230 8,100 -50 Level Atlanta Center
Sun 10:20:57 AM 36.7186 -80.7342 209° Southwest 200 230 8,000 -50 Descending Atlanta Center
Sun 10:21:57 AM 36.6694 -80.7700 210° Southwest 200 230 8,000 -50 Level Atlanta Center
Sun 10:22:57 AM 36.6244 -80.8003 208° Southwest 200 230 7,900  Descending Atlanta Center
Sun 10:23:57 AM 36.5775 -80.8358 211° Southwest 200 230 8,000 50 Climbing Atlanta Center
Sun 10:24:57 AM 36.5303 -80.8661 207° Southwest 200 230 8,000  Level Atlanta Center
Sun 10:25:57 AM 36.4833 -80.9014 211° Southwest 195 224 8,000  Level Atlanta Center
Sun 10:26:57 AM 36.4342 -80.9369 210° Southwest 200 230 8,000  Level Atlanta Center
Sun 10:27:57 AM 36.3869 -80.9722 211° Southwest 200 230 8,000  Level Atlanta Center
Sun 10:28:57 AM 36.3461 -81.0022 211° Southwest 205 236 8,000  Level Atlanta Center
Sun 10:29:57 AM 36.2969 -81.0375 210° Southwest 205 236 8,000  Level Atlanta Center
Sun 10:30:57 AM 36.2497 -81.0703 209° Southwest 205 236 8,000  Level Atlanta Center
Sun 10:31:57 AM 36.2025 -81.1028 209° Southwest 205 236 8,000  Level Atlanta Center
Sun 10:32:57 AM 36.1553 -81.1381 211° Southwest 200 230 8,000  Level Atlanta Center
Sun 10:33:57 AM 36.1081 -81.1706 209° Southwest 205 236 8,000  Level Atlanta Center
Sun 10:34:57 AM 36.0611 -81.2056 211° Southwest 205 236 8,000  Level Atlanta Center
Sun 10:35:57 AM 36.0097 -81.2408 209° Southwest 205 236 8,000  Level Atlanta Center
Sun 10:36:57 AM 35.9606 -81.2758 210° Southwest 205 236 8,000  Level Atlanta Center
Sun 10:37:57 AM 35.9133 -81.3108 211° Southwest 205 236 8,000  Level Atlanta Center
Sun 10:38:57 AM 35.8658 -81.3431 209° Southwest 205 236 8,000  Level Atlanta Center
Sun 10:39:57 AM 35.8167 -81.3781 210° Southwest 205 236 8,000  Level Atlanta Center
Sun 10:40:57 AM 35.7694 -81.4128 211° Southwest 205 236 8,000  Level Atlanta Center
Sun 10:41:57 AM 35.7200 -81.4450 208° Southwest 205 236 8,000  Level Atlanta Center
Sun 10:42:57 AM 35.6728 -81.4797 211° Southwest 205 236 8,000  Level Atlanta Center
Sun 10:43:57 AM 35.6233 -81.5119 208° Southwest 205 236 8,000  Level Atlanta Center
Sun 10:44:57 AM 35.5781 -81.5442 210° Southwest 205 236 8,000  Level Atlanta Center
Sun 10:45:57 AM 35.5308 -81.5761 209° Southwest 205 236 8,000  Level Atlanta Center
Sun 10:46:57 AM 35.4836 -81.6081 209° Southwest 205 236 8,000  Level Atlanta Center
Sun 10:47:57 AM 35.4342 -81.6428 210° Southwest 205 236 8,000  Level Atlanta Center
Sun 10:48:57 AM 35.3889 -81.6747 210° Southwest 205 236 8,000  Level Atlanta Center
Sun 10:49:57 AM 35.3394 -81.7092 210° Southwest 205 236 8,000  Level Atlanta Center
Sun 10:50:57 AM 35.3003 -81.7358 209° Southwest 200 230 8,000  Level Atlanta Center
Sun 10:51:57 AM 35.2508 -81.7678 208° Southwest 200 230 8,000  Level Atlanta Center
Sun 10:52:57 AM 35.2056 -81.7994 210° Southwest 200 230 8,000  Level Atlanta Center
Sun 10:53:57 AM 35.1603 -81.8336 212° Southwest 200 230 8,000  Level Atlanta Center
Sun 10:54:57 AM 35.1128 -81.8653 209° Southwest 200 230 8,000  Level Atlanta Center
Sun 10:55:57 AM 35.0653 -81.8969 209° Southwest 200 230 8,000  Level Atlanta Center
Sun 10:56:57 AM 35.0136 -81.9314 209° Southwest 200 230 8,000 Level Atlanta Center
Sun 10:58:00 AM 34.9641 -81.9602 205° Southwest  Level FlightAware
Sun 11:05:00 AM 34.6412 -82.1698 209° Southwest  Level FlightAware
Sun 11:06:00 AM 34.5956 -82.2007 209° Southwest  Level FlightAware
Sun 11:07:00 AM 34.5499 -82.2315 209° Southwest  Level FlightAware
Sun 11:08:00 AM 34.5042 -82.2623 209° Southwest  Level FlightAware
Sun 11:09:00 AM 34.4585 -82.2931 209° Southwest  Level FlightAware
Sun 11:10:00 AM 34.4128 -82.3239 209° Southwest  Level FlightAware
Sun 11:10:09 AM 34.3881 -82.3597 209° Southwest 228 262 8,100  Level Atlanta Center
Sun 11:11:00 AM 34.3671 -82.3546 209° Southwest  Level FlightAware
Sun 11:11:09 AM 34.3444 -82.3858 206° Southwest 209 241 8,000  Level Atlanta Center
Sun 11:12:00 AM 34.3214 -82.3853 209° Southwest  Level FlightAware
Sun 11:12:09 AM 34.2928 -82.4144 205° Southwest 206 237 8,000  Level Atlanta Center
Sun 11:13:00 AM 34.2757 -82.4159 209° Southwest  Level FlightAware
Sun 11:13:09 AM 34.2472 -82.4456 209° Southwest 199 229 8,000  Level Atlanta Center
Sun 11:14:00 AM 34.2300 -82.4465 209° Southwest  Level FlightAware
Sun 11:14:09 AM 34.1997 -82.4767 208° Southwest 194 223 8,000  Level Atlanta Center
Sun 11:15:09 AM 34.1500 -82.5100 209° Southwest 194 223 8,000  Level Atlanta Center
Sun 11:16:09 AM 34.1044 -82.5411 209° Southwest 194 223 8,000  Level Atlanta Center
Sun 11:17:09 AM 34.0589 -82.5719 209° Southwest 194 223 8,000  Level Atlanta Center
Sun 11:18:09 AM 34.0114 -82.6053 210° Southwest 194 223 8,000  Level Atlanta Center
Sun 11:19:09 AM 33.9617 -82.6361 207° Southwest 199 229 8,000  Level Atlanta Center
Sun 11:20:09 AM 33.9139 -82.6694 210° Southwest 199 229 8,000  Level Atlanta Center
Sun 11:21:09 AM 33.8661 -82.6978 206° Southwest 199 229 8,000  Level Atlanta Center
Sun 11:22:09 AM 33.8186 -82.7311 210° Southwest 199 229 8,000  Level Atlanta Center
Sun 11:23:09 AM 33.7750 -82.7592 208° Southwest 199 229 8,000  Level Atlanta Center
Sun 11:25:00 AM 33.6890 -82.8123 207° Southwest  Level FlightAware
Sun 11:29:29 AM 33.4833 -82.9500 209° Southwest 194 223 8,000  Level Atlanta TRACON
Sun 11:30:23 AM 33.4333 -82.9833 209° Southwest 190 219 8,000  Level Atlanta TRACON
Sun 11:31:35 AM 33.3833 -83.0167 209° Southwest 195 224 8,000  Level Atlanta TRACON
Sun 11:32:00 AM 33.3635 -83.0132 209° Southwest  Level FlightAware
Sun 11:32:29 AM 33.3333 -83.0500 209° Southwest 191 220 8,000  Level Atlanta TRACON
Sun 11:33:00 AM 33.3178 -83.0435 209° Southwest  Level FlightAware
Sun 11:33:29 AM 33.2833 -83.0833 209° Southwest 192 221 8,000  Level Atlanta TRACON
Sun 11:34:00 AM 33.2721 -83.0739 209° Southwest  Level FlightAware
Sun 11:34:29 AM 33.2500 -83.1000 203° Southwest 191 220 8,000  Level Atlanta TRACON
Sun 11:35:29 AM 33.2000 -83.1333 209° Southwest 190 219 8,000  Level Atlanta TRACON
Sun 11:36:29 AM 33.1500 -83.1667 209° Southwest 191 220 8,000  Level Atlanta TRACON
Sun 11:37:29 AM 33.1000 -83.2000 209° Southwest 190 219 8,000  Level Atlanta TRACON
Sun 11:38:29 AM 33.0500 -83.2333 209° Southwest 191 220 8,000  Level Atlanta TRACON
Sun 11:39:29 AM 33.0167 -83.2500 203° Southwest 190 219 8,000  Level Atlanta TRACON
Sun 11:40:23 AM 32.9667 -83.2833 209° Southwest 190 219 8,000  Level Atlanta TRACON
Sun 11:41:29 AM 32.9167 -83.3167 209° Southwest 192 221 8,000  Level Atlanta TRACON
Sun 11:42:29 AM 32.8667 -83.3500 209° Southwest 191 220 8,000  Level Atlanta TRACON
Sun 11:43:29 AM 32.8167 -83.3833 209° Southwest 190 219 8,000  Level Atlanta TRACON
Sun 11:44:29 AM 32.7833 -83.4000 203° Southwest 187 215 8,000  Level Atlanta TRACON
Sun 11:45:29 AM 32.7333 -83.4333 209° Southwest 185 213 8,000  Level Atlanta TRACON
Sun 11:46:24 AM 32.7000 -83.4667 220° Southwest 184 212 8,000  Level Atlanta TRACON
Sun 11:47:24 AM 32.6500 -83.4833 196° South 185 213 8,000  Level Atlanta TRACON
Sun 11:48:29 AM 32.6000 -83.5167 209° Southwest 187 215 8,000  Level Atlanta TRACON
Sun 11:49:29 AM 32.5500 -83.5500 209° Southwest 187 215 8,000  Level Atlanta TRACON
Sun 11:50:29 AM 32.5167 -83.5833 220° Southwest 184 212 8,000  Level Atlanta TRACON
Sun 11:51:30 AM 32.4667 -83.6000 196° South 181 208 8,000  Level Atlanta TRACON
Sun 11:52:30 AM 32.4167 -83.6333 209° Southwest 180 207 8,000  Level Atlanta TRACON
Sun 11:53:24 AM 32.3833 -83.6667 220° Southwest 179 206 8,000  Level Atlanta TRACON
Sun 11:54:24 AM 32.3333 -83.6833 196° South 179 206 8,000  Level Atlanta TRACON
Sun 11:55:24 AM 32.3000 -83.7167 220° Southwest 179 206 8,000  Level Atlanta TRACON
Sun 11:56:24 AM 32.2500 -83.7500 209° Southwest 181 208 8,000  Level Atlanta TRACON
Sun 11:57:17 AM 32.2158 -83.7667 202° Southwest 176 203 8,000  Level Jacksonville Center
Sun 11:58:17 AM 32.1697 -83.7933 206° Southwest 181 208 8,000  Level Jacksonville Center
Sun 11:59:17 AM 32.1275 -83.8222 210° Southwest 181 208 8,000  Level Jacksonville Center
Sun 12:00:17 PM 32.0836 -83.8514 209° Southwest 181 208 8,000  Level Jacksonville Center
Sun 12:01:17 PM 32.0375 -83.8778 206° Southwest 181 208 8,000  Level Jacksonville Center
Sun 12:02:17 PM 31.9956 -83.9067 210° Southwest 181 208 8,000  Level Jacksonville Center
Sun 12:03:17 PM 31.9492 -83.9356 208° Southwest 181 208 8,000 -300 Level Jacksonville Center
Sun 12:04:17 PM 31.9031 -83.9619 206° Southwest 181 208 7,400 -500 Descending Jacksonville Center
Sun 12:05:17 PM 31.8592 -83.9908 209° Southwest 181 208 7,000 -550 Descending Jacksonville Center
Sun 12:06:17 PM 31.8108 -84.0219 209° Southwest 181 208 6,300 -600 Descending Jacksonville Center
Sun 12:07:17 PM 31.7644 -84.0508 208° Southwest 181 208 5,800 -600 Descending Jacksonville Center
Sun 12:08:17 PM 31.7206 -84.0794 209° Southwest 181 208 5,100 -650 Descending Jacksonville Center
Sun 12:09:17 PM 31.6764 -84.1131 213° Southwest 186 214 4,500 -550 Descending Jacksonville Center
Sun 12:10:17 PM 31.6361 -84.1517 219° Southwest 186 214 4,000 -250 Descending Jacksonville Center
Sun 12:11:17 PM 31.6025 -84.1856 221° Southwest 186 214 4,000  Level Jacksonville Center
Sun 12:12:17 PM 31.5603 -84.2286 221° Southwest 181 208 4,000 -100 Level Jacksonville Center
Sun 12:13:17 PM 31.5264 -84.2672 224° Southwest 176 203 3,800 -300 Descending Jacksonville Center
Sun 12:14:17 PM 31.5050 -84.3108 240° Southwest 176 203 3,400 -400 Descending Jacksonville Center
Sun 12:15:17 PM 31.4817 -84.3614 242° Southwest 176 203 3,000 -200 Descending Jacksonville Center
Sun 12:16:17 PM 31.4603 -84.4075 241° Southwest 176 203 3,000  Level Jacksonville Center
Sun 12:17:17 PM 31.4328 -84.4242 207° Southwest 161 185 3,000  Level Jacksonville Center
Sun 12:18:17 PM 31.3997 -84.3919 140° Southeast 105 121 3,000  Level Jacksonville Center
Sun 12:19:17 PM 31.3981 -84.3553 93° East 97 112 3,000  Level Jacksonville Center
Sun 12:20:17 PM 31.4194 -84.3144 58° Northeast 103 119 3,000 -300 Level Jacksonville Center
Sun 12:21:17 PM 31.4469 -84.2856 42° Northeast 116 133 2,400 -650 Descending Jacksonville Center
Sun 12:22:17 PM 31.4744 -84.2567 42° Northeast 127 146 1,700 -650 Descending Jacksonville Center
Sun 12:23:17 PM 31.4975 -84.2328 41° Northeast 121 139 1,100 -600 Descending Jacksonville Center
Sun 12:24:17 PM 31.5208 -84.2086 41° Northeast 115 132 500 -600 Descending Jacksonville Center

Login

Don't have an account? Register now (free) for customized features, flight alerts, and more!